sensor_id;sensor_type;location;lat;lon;timestamp;temperature;humidity
7598;DHT22;3840;59.32098800;18.06423600;2023-08-31T00:00:11;13.70;99.90
7598;DHT22;3840;59.32098800;18.06423600;2023-08-31T00:02:38;13.80;99.90
7598;DHT22;3840;59.32098800;18.06423600;2023-08-31T00:05:05;13.80;99.90
7598;DHT22;3840;59.32098800;18.06423600;2023-08-31T00:07:31;13.80;99.90
7598;DHT22;3840;59.32098800;18.06423600;2023-08-31T00:09:57;13.70;99.90
7598;DHT22;3840;59.32098800;18.06423600;2023-08-31T00:12:24;13.70;99.90
7598;DHT22;3840;59.32098800;18.06423600;2023-08-31T00:14:50;13.70;99.90
7598;DHT22;3840;59.32098800;18.06423600;2023-08-31T00:17:15;13.70;99.90
7598;DHT22;3840;59.32098800;18.06423600;2023-08-31T00:19:41;13.70;99.90
7598;DHT22;3840;59.32098800;18.06423600;2023-08-31T00:22:07;13.70;99.90
7598;DHT22;3840;59.32098800;18.06423600;2023-08-31T00:24:32;13.70;99.90
7598;DHT22;3840;59.32098800;18.06423600;2023-08-31T00:26:59;13.70;99.90
7598;DHT22;3840;59.32098800;18.06423600;2023-08-31T00:29:24;13.70;99.90
7598;DHT22;3840;59.32098800;18.06423600;2023-08-31T00:31:51;13.70;99.90
7598;DHT22;3840;59.32098800;18.06423600;2023-08-31T00:34:19;13.70;99.90
7598;DHT22;3840;59.32098800;18.06423600;2023-08-31T00:36:44;13.70;99.90
7598;DHT22;3840;59.32098800;18.06423600;2023-08-31T00:39:10;13.70;99.90
7598;DHT22;3840;59.32098800;18.06423600;2023-08-31T00:41:36;13.70;99.90
7598;DHT22;3840;59.32098800;18.06423600;2023-08-31T00:44:03;13.70;99.90
7598;DHT22;3840;59.32098800;18.06423600;2023-08-31T00:46:31;13.70;99.90
7598;DHT22;3840;59.32098800;18.06423600;2023-08-31T00:48:57;13.70;99.90
7598;DHT22;3840;59.32098800;18.06423600;2023-08-31T00:51:24;13.70;99.90
7598;DHT22;3840;59.32098800;18.06423600;2023-08-31T00:53:52;13.70;99.90
7598;DHT22;3840;59.32098800;18.06423600;2023-08-31T00:56:20;13.70;99.90
7598;DHT22;3840;59.32098800;18.06423600;2023-08-31T00:58:46;13.70;99.90
7598;DHT22;3840;59.32098800;18.06423600;2023-08-31T01:01:26;13.60;99.90
7598;DHT22;3840;59.32098800;18.06423600;2023-08-31T01:04:10;13.60;99.90
7598;DHT22;3840;59.32098800;18.06423600;2023-08-31T01:06:50;13.60;99.90
7598;DHT22;3840;59.32098800;18.06423600;2023-08-31T01:12:12;13.60;99.90
7598;DHT22;3840;59.32098800;18.06423600;2023-08-31T01:14:57;13.60;99.90
7598;DHT22;3840;59.32098800;18.06423600;2023-08-31T01:17:27;13.60;99.90
7598;DHT22;3840;59.32098800;18.06423600;2023-08-31T01:19:58;13.50;99.90
7598;DHT22;3840;59.32098800;18.06423600;2023-08-31T01:25:00;13.50;99.90
7598;DHT22;3840;59.32098800;18.06423600;2023-08-31T01:27:31;13.50;99.90
7598;DHT22;3840;59.32098800;18.06423600;2023-08-31T01:29:57;13.50;99.90
7598;DHT22;3840;59.32098800;18.06423600;2023-08-31T01:32:23;13.50;99.90
7598;DHT22;3840;59.32098800;18.06423600;2023-08-31T01:34:50;13.50;99.90
7598;DHT22;3840;59.32098800;18.06423600;2023-08-31T01:37:47;13.40;99.90
7598;DHT22;3840;59.32098800;18.06423600;2023-08-31T01:40:40;13.40;99.90
7598;DHT22;3840;59.32098800;18.06423600;2023-08-31T01:43:10;13.40;99.90
7598;DHT22;3840;59.32098800;18.06423600;2023-08-31T01:45:37;13.50;99.90
7598;DHT22;3840;59.32098800;18.06423600;2023-08-31T01:48:04;13.50;99.90
7598;DHT22;3840;59.32098800;18.06423600;2023-08-31T01:50:31;13.40;99.90
7598;DHT22;3840;59.32098800;18.06423600;2023-08-31T01:52:57;13.40;99.90
7598;DHT22;3840;59.32098800;18.06423600;2023-08-31T01:55:23;13.40;99.90
7598;DHT22;3840;59.32098800;18.06423600;2023-08-31T01:57:49;13.40;99.90
7598;DHT22;3840;59.32098800;18.06423600;2023-08-31T02:00:17;13.40;99.90
7598;DHT22;3840;59.32098800;18.06423600;2023-08-31T02:02:43;13.40;99.90
7598;DHT22;3840;59.32098800;18.06423600;2023-08-31T02:05:09;13.40;99.90
7598;DHT22;3840;59.32098800;18.06423600;2023-08-31T02:07:35;13.40;99.90
7598;DHT22;3840;59.32098800;18.06423600;2023-08-31T02:10:01;13.40;99.90
7598;DHT22;3840;59.32098800;18.06423600;2023-08-31T02:12:27;13.40;99.90
7598;DHT22;3840;59.32098800;18.06423600;2023-08-31T02:14:53;13.40;99.90
7598;DHT22;3840;59.32098800;18.06423600;2023-08-31T02:17:19;13.40;99.90
7598;DHT22;3840;59.32098800;18.06423600;2023-08-31T02:19:44;13.40;99.90
7598;DHT22;3840;59.32098800;18.06423600;2023-08-31T02:22:10;13.40;99.90
7598;DHT22;3840;59.32098800;18.06423600;2023-08-31T02:24:36;13.40;99.90
7598;DHT22;3840;59.32098800;18.06423600;2023-08-31T02:27:02;13.50;99.90
7598;DHT22;3840;59.32098800;18.06423600;2023-08-31T02:29:28;13.40;99.90
7598;DHT22;3840;59.32098800;18.06423600;2023-08-31T02:31:53;13.40;99.90
7598;DHT22;3840;59.32098800;18.06423600;2023-08-31T02:34:19;13.40;99.90
7598;DHT22;3840;59.32098800;18.06423600;2023-08-31T02:36:45;13.00;99.90
7598;DHT22;3840;59.32098800;18.06423600;2023-08-31T02:39:11;13.40;99.90
7598;DHT22;3840;59.32098800;18.06423600;2023-08-31T02:41:36;13.40;99.90
7598;DHT22;3840;59.32098800;18.06423600;2023-08-31T02:44:03;13.40;99.90
7598;DHT22;3840;59.32098800;18.06423600;2023-08-31T02:46:29;13.40;99.90
7598;DHT22;3840;59.32098800;18.06423600;2023-08-31T02:48:55;13.40;99.90
7598;DHT22;3840;59.32098800;18.06423600;2023-08-31T02:51:22;13.40;99.90
7598;DHT22;3840;59.32098800;18.06423600;2023-08-31T02:53:48;13.40;99.90
7598;DHT22;3840;59.32098800;18.06423600;2023-08-31T02:56:14;13.40;99.90
7598;DHT22;3840;59.32098800;18.06423600;2023-08-31T02:58:40;13.50;99.90
7598;DHT22;3840;59.32098800;18.06423600;2023-08-31T03:01:10;13.40;99.90
7598;DHT22;3840;59.32098800;18.06423600;2023-08-31T03:03:37;13.40;99.90
7598;DHT22;3840;59.32098800;18.06423600;2023-08-31T03:06:03;13.40;99.90
7598;DHT22;3840;59.32098800;18.06423600;2023-08-31T03:08:29;13.40;99.90
7598;DHT22;3840;59.32098800;18.06423600;2023-08-31T03:10:56;13.40;99.90
7598;DHT22;3840;59.32098800;18.06423600;2023-08-31T03:13:22;13.40;99.90
7598;DHT22;3840;59.32098800;18.06423600;2023-08-31T03:15:48;13.40;99.90
7598;DHT22;3840;59.32098800;18.06423600;2023-08-31T03:18:13;13.40;99.90
7598;DHT22;3840;59.32098800;18.06423600;2023-08-31T03:20:39;13.40;99.90
7598;DHT22;3840;59.32098800;18.06423600;2023-08-31T03:23:05;13.40;99.90
7598;DHT22;3840;59.32098800;18.06423600;2023-08-31T03:25:30;13.30;99.90
7598;DHT22;3840;59.32098800;18.06423600;2023-08-31T03:27:56;13.30;99.90
7598;DHT22;3840;59.32098800;18.06423600;2023-08-31T03:30:22;13.40;99.90
7598;DHT22;3840;59.32098800;18.06423600;2023-08-31T03:32:48;13.30;99.90
7598;DHT22;3840;59.32098800;18.06423600;2023-08-31T03:35:13;13.40;99.90
7598;DHT22;3840;59.32098800;18.06423600;2023-08-31T03:37:39;13.30;99.90
7598;DHT22;3840;59.32098800;18.06423600;2023-08-31T03:40:05;13.30;99.90
7598;DHT22;3840;59.32098800;18.06423600;2023-08-31T03:42:33;13.30;99.90
7598;DHT22;3840;59.32098800;18.06423600;2023-08-31T03:44:59;13.30;99.90
7598;DHT22;3840;59.32098800;18.06423600;2023-08-31T03:47:25;13.20;99.90
7598;DHT22;3840;59.32098800;18.06423600;2023-08-31T03:49:51;13.30;99.90
7598;DHT22;3840;59.32098800;18.06423600;2023-08-31T03:52:16;13.20;99.90
7598;DHT22;3840;59.32098800;18.06423600;2023-08-31T03:54:42;13.30;99.90
7598;DHT22;3840;59.32098800;18.06423600;2023-08-31T03:57:08;13.30;99.90
7598;DHT22;3840;59.32098800;18.06423600;2023-08-31T03:59:33;13.30;99.90
7598;DHT22;3840;59.32098800;18.06423600;2023-08-31T04:02:00;13.30;99.90
7598;DHT22;3840;59.32098800;18.06423600;2023-08-31T04:04:25;13.40;99.90
7598;DHT22;3840;59.32098800;18.06423600;2023-08-31T04:06:51;13.40;99.90
7598;DHT22;3840;59.32098800;18.06423600;2023-08-31T04:09:17;13.40;99.90
7598;DHT22;3840;59.32098800;18.06423600;2023-08-31T04:11:42;13.40;99.90
7598;DHT22;3840;59.32098800;18.06423600;2023-08-31T04:14:08;13.40;99.90
7598;DHT22;3840;59.32098800;18.06423600;2023-08-31T04:16:34;13.50;99.90
7598;DHT22;3840;59.32098800;18.06423600;2023-08-31T04:19:00;13.50;99.90
7598;DHT22;3840;59.32098800;18.06423600;2023-08-31T04:21:25;13.50;99.90
7598;DHT22;3840;59.32098800;18.06423600;2023-08-31T04:23:51;13.60;99.90
7598;DHT22;3840;59.32098800;18.06423600;2023-08-31T04:26:17;13.50;99.90
7598;DHT22;3840;59.32098800;18.06423600;2023-08-31T04:28:43;13.60;99.90
7598;DHT22;3840;59.32098800;18.06423600;2023-08-31T04:31:09;13.60;99.90
7598;DHT22;3840;59.32098800;18.06423600;2023-08-31T04:33:36;13.60;99.90
7598;DHT22;3840;59.32098800;18.06423600;2023-08-31T04:36:02;13.70;99.90
7598;DHT22;3840;59.32098800;18.06423600;2023-08-31T04:38:30;13.70;99.90
7598;DHT22;3840;59.32098800;18.06423600;2023-08-31T04:40:58;13.80;99.90
7598;DHT22;3840;59.32098800;18.06423600;2023-08-31T04:43:25;13.80;99.90
7598;DHT22;3840;59.32098800;18.06423600;2023-08-31T04:45:54;13.90;99.90
7598;DHT22;3840;59.32098800;18.06423600;2023-08-31T04:48:20;13.90;99.90
7598;DHT22;3840;59.32098800;18.06423600;2023-08-31T04:50:46;13.90;99.90
7598;DHT22;3840;59.32098800;18.06423600;2023-08-31T04:53:12;14.00;99.90
7598;DHT22;3840;59.32098800;18.06423600;2023-08-31T04:55:38;13.90;99.90
7598;DHT22;3840;59.32098800;18.06423600;2023-08-31T04:58:04;14.00;99.90
7598;DHT22;3840;59.32098800;18.06423600;2023-08-31T05:00:30;13.90;99.90
7598;DHT22;3840;59.32098800;18.06423600;2023-08-31T05:02:56;14.00;99.90
7598;DHT22;3840;59.32098800;18.06423600;2023-08-31T05:05:22;13.90;99.90
7598;DHT22;3840;59.32098800;18.06423600;2023-08-31T05:07:48;14.00;99.90
7598;DHT22;3840;59.32098800;18.06423600;2023-08-31T05:10:14;14.10;99.90
7598;DHT22;3840;59.32098800;18.06423600;2023-08-31T05:12:40;14.20;99.90
7598;DHT22;3840;59.32098800;18.06423600;2023-08-31T05:15:06;14.20;99.90
7598;DHT22;3840;59.32098800;18.06423600;2023-08-31T05:17:32;14.30;99.90
7598;DHT22;3840;59.32098800;18.06423600;2023-08-31T05:19:58;14.30;99.90
7598;DHT22;3840;59.32098800;18.06423600;2023-08-31T05:22:23;14.40;99.90
7598;DHT22;3840;59.32098800;18.06423600;2023-08-31T05:24:49;14.40;99.90
7598;DHT22;3840;59.32098800;18.06423600;2023-08-31T05:27:15;14.50;99.90
7598;DHT22;3840;59.32098800;18.06423600;2023-08-31T05:29:41;14.50;99.90
7598;DHT22;3840;59.32098800;18.06423600;2023-08-31T05:32:07;14.50;99.90
7598;DHT22;3840;59.32098800;18.06423600;2023-08-31T05:34:32;14.50;99.90
7598;DHT22;3840;59.32098800;18.06423600;2023-08-31T05:37:04;14.80;99.90
7598;DHT22;3840;59.32098800;18.06423600;2023-08-31T05:39:30;14.90;99.90
7598;DHT22;3840;59.32098800;18.06423600;2023-08-31T05:41:56;15.00;99.90
7598;DHT22;3840;59.32098800;18.06423600;2023-08-31T05:44:22;15.10;99.90
7598;DHT22;3840;59.32098800;18.06423600;2023-08-31T05:46:48;15.10;99.90
7598;DHT22;3840;59.32098800;18.06423600;2023-08-31T05:49:13;15.20;99.90
7598;DHT22;3840;59.32098800;18.06423600;2023-08-31T05:51:39;15.30;99.90
7598;DHT22;3840;59.32098800;18.06423600;2023-08-31T05:54:05;15.40;99.90
7598;DHT22;3840;59.32098800;18.06423600;2023-08-31T05:56:40;15.30;99.90
7598;DHT22;3840;59.32098800;18.06423600;2023-08-31T05:59:09;15.30;99.90
7598;DHT22;3840;59.32098800;18.06423600;2023-08-31T06:01:35;15.30;99.90
7598;DHT22;3840;59.32098800;18.06423600;2023-08-31T06:04:02;15.30;99.90
7598;DHT22;3840;59.32098800;18.06423600;2023-08-31T06:06:29;15.40;99.90
7598;DHT22;3840;59.32098800;18.06423600;2023-08-31T06:08:55;15.40;99.90
7598;DHT22;3840;59.32098800;18.06423600;2023-08-31T06:11:22;15.40;99.90
7598;DHT22;3840;59.32098800;18.06423600;2023-08-31T06:13:47;15.40;99.90
7598;DHT22;3840;59.32098800;18.06423600;2023-08-31T06:16:13;15.40;99.90
7598;DHT22;3840;59.32098800;18.06423600;2023-08-31T06:18:39;15.40;99.90
7598;DHT22;3840;59.32098800;18.06423600;2023-08-31T06:21:05;15.40;99.90
7598;DHT22;3840;59.32098800;18.06423600;2023-08-31T06:23:30;15.50;99.90
7598;DHT22;3840;59.32098800;18.06423600;2023-08-31T06:25:56;15.60;99.90
7598;DHT22;3840;59.32098800;18.06423600;2023-08-31T06:28:22;15.60;99.90
7598;DHT22;3840;59.32098800;18.06423600;2023-08-31T06:30:48;15.60;99.90
7598;DHT22;3840;59.32098800;18.06423600;2023-08-31T06:33:15;15.60;99.90
7598;DHT22;3840;59.32098800;18.06423600;2023-08-31T06:35:46;15.50;99.90
7598;DHT22;3840;59.32098800;18.06423600;2023-08-31T06:38:15;15.50;99.90
7598;DHT22;3840;59.32098800;18.06423600;2023-08-31T06:40:42;15.50;99.90
7598;DHT22;3840;59.32098800;18.06423600;2023-08-31T06:43:08;15.60;99.90
7598;DHT22;3840;59.32098800;18.06423600;2023-08-31T06:45:34;15.70;99.90
7598;DHT22;3840;59.32098800;18.06423600;2023-08-31T06:48:01;15.80;99.90
7598;DHT22;3840;59.32098800;18.06423600;2023-08-31T06:50:26;15.90;99.90
7598;DHT22;3840;59.32098800;18.06423600;2023-08-31T06:52:52;16.20;99.90
7598;DHT22;3840;59.32098800;18.06423600;2023-08-31T06:55:18;16.30;99.90
7598;DHT22;3840;59.32098800;18.06423600;2023-08-31T06:57:43;16.30;99.90
7598;DHT22;3840;59.32098800;18.06423600;2023-08-31T07:00:10;16.50;99.90
7598;DHT22;3840;59.32098800;18.06423600;2023-08-31T07:02:39;16.40;99.90
7598;DHT22;3840;59.32098800;18.06423600;2023-08-31T07:05:06;16.50;99.90
7598;DHT22;3840;59.32098800;18.06423600;2023-08-31T07:07:33;16.50;99.90
7598;DHT22;3840;59.32098800;18.06423600;2023-08-31T07:09:59;16.50;99.90
7598;DHT22;3840;59.32098800;18.06423600;2023-08-31T07:12:25;16.40;99.90
7598;DHT22;3840;59.32098800;18.06423600;2023-08-31T07:14:51;16.30;99.90
7598;DHT22;3840;59.32098800;18.06423600;2023-08-31T07:17:20;16.30;99.90
7598;DHT22;3840;59.32098800;18.06423600;2023-08-31T07:19:46;16.10;99.90
7598;DHT22;3840;59.32098800;18.06423600;2023-08-31T07:22:11;16.10;99.90
7598;DHT22;3840;59.32098800;18.06423600;2023-08-31T07:24:38;16.10;99.90
7598;DHT22;3840;59.32098800;18.06423600;2023-08-31T07:27:04;16.00;99.90
7598;DHT22;3840;59.32098800;18.06423600;2023-08-31T07:29:31;16.00;99.90
7598;DHT22;3840;59.32098800;18.06423600;2023-08-31T07:31:57;16.10;99.90
7598;DHT22;3840;59.32098800;18.06423600;2023-08-31T07:34:23;16.10;99.90
7598;DHT22;3840;59.32098800;18.06423600;2023-08-31T07:36:49;16.00;99.90
7598;DHT22;3840;59.32098800;18.06423600;2023-08-31T07:39:15;16.00;99.90
7598;DHT22;3840;59.32098800;18.06423600;2023-08-31T07:41:43;16.10;99.90
7598;DHT22;3840;59.32098800;18.06423600;2023-08-31T07:44:09;16.20;99.90
7598;DHT22;3840;59.32098800;18.06423600;2023-08-31T07:46:35;16.10;99.90
7598;DHT22;3840;59.32098800;18.06423600;2023-08-31T07:49:00;16.10;99.90
7598;DHT22;3840;59.32098800;18.06423600;2023-08-31T07:51:27;16.10;99.90
7598;DHT22;3840;59.32098800;18.06423600;2023-08-31T07:53:53;16.10;99.90
7598;DHT22;3840;59.32098800;18.06423600;2023-08-31T07:56:19;16.20;99.90
7598;DHT22;3840;59.32098800;18.06423600;2023-08-31T07:58:44;16.20;99.90
7598;DHT22;3840;59.32098800;18.06423600;2023-08-31T08:01:10;16.40;99.90
7598;DHT22;3840;59.32098800;18.06423600;2023-08-31T08:03:36;16.50;99.90
7598;DHT22;3840;59.32098800;18.06423600;2023-08-31T08:06:01;16.50;99.90
7598;DHT22;3840;59.32098800;18.06423600;2023-08-31T08:08:28;16.70;99.90
7598;DHT22;3840;59.32098800;18.06423600;2023-08-31T08:10:54;16.70;99.90
7598;DHT22;3840;59.32098800;18.06423600;2023-08-31T08:13:20;16.80;99.90
7598;DHT22;3840;59.32098800;18.06423600;2023-08-31T08:15:46;16.80;99.90
7598;DHT22;3840;59.32098800;18.06423600;2023-08-31T08:18:12;16.80;99.90
7598;DHT22;3840;59.32098800;18.06423600;2023-08-31T08:20:38;16.80;99.90
7598;DHT22;3840;59.32098800;18.06423600;2023-08-31T08:23:05;16.80;99.90
7598;DHT22;3840;59.32098800;18.06423600;2023-08-31T08:25:31;16.90;99.90
7598;DHT22;3840;59.32098800;18.06423600;2023-08-31T08:27:57;16.90;99.90
7598;DHT22;3840;59.32098800;18.06423600;2023-08-31T08:30:23;17.00;99.90
7598;DHT22;3840;59.32098800;18.06423600;2023-08-31T08:32:49;17.20;99.90
7598;DHT22;3840;59.32098800;18.06423600;2023-08-31T08:35:14;17.20;99.90
7598;DHT22;3840;59.32098800;18.06423600;2023-08-31T08:37:40;17.30;99.90
7598;DHT22;3840;59.32098800;18.06423600;2023-08-31T08:40:07;17.30;99.90
7598;DHT22;3840;59.32098800;18.06423600;2023-08-31T08:42:41;17.30;99.90
7598;DHT22;3840;59.32098800;18.06423600;2023-08-31T08:45:16;17.30;99.90
7598;DHT22;3840;59.32098800;18.06423600;2023-08-31T08:47:43;17.20;99.90
7598;DHT22;3840;59.32098800;18.06423600;2023-08-31T08:50:11;17.40;99.90
7598;DHT22;3840;59.32098800;18.06423600;2023-08-31T08:52:38;17.20;99.90
7598;DHT22;3840;59.32098800;18.06423600;2023-08-31T08:55:05;17.10;99.90
7598;DHT22;3840;59.32098800;18.06423600;2023-08-31T08:57:31;17.50;99.90
7598;DHT22;3840;59.32098800;18.06423600;2023-08-31T08:59:58;17.50;99.90
7598;DHT22;3840;59.32098800;18.06423600;2023-08-31T09:02:24;17.40;99.90
7598;DHT22;3840;59.32098800;18.06423600;2023-08-31T09:04:49;17.40;99.90
7598;DHT22;3840;59.32098800;18.06423600;2023-08-31T09:07:22;17.40;99.90
7598;DHT22;3840;59.32098800;18.06423600;2023-08-31T09:09:53;17.40;99.90
7598;DHT22;3840;59.32098800;18.06423600;2023-08-31T09:12:23;17.50;99.90
7598;DHT22;3840;59.32098800;18.06423600;2023-08-31T09:15:00;17.60;99.90
7598;DHT22;3840;59.32098800;18.06423600;2023-08-31T09:17:28;17.70;99.90
7598;DHT22;3840;59.32098800;18.06423600;2023-08-31T09:20:03;17.70;99.90
7598;DHT22;3840;59.32098800;18.06423600;2023-08-31T09:22:29;17.70;99.90
7598;DHT22;3840;59.32098800;18.06423600;2023-08-31T09:24:55;17.60;99.90
7598;DHT22;3840;59.32098800;18.06423600;2023-08-31T09:27:21;17.60;99.90
7598;DHT22;3840;59.32098800;18.06423600;2023-08-31T09:29:50;17.70;99.90
7598;DHT22;3840;59.32098800;18.06423600;2023-08-31T09:32:19;17.80;99.90
7598;DHT22;3840;59.32098800;18.06423600;2023-08-31T09:34:45;17.80;99.90
7598;DHT22;3840;59.32098800;18.06423600;2023-08-31T09:37:11;17.90;99.90
7598;DHT22;3840;59.32098800;18.06423600;2023-08-31T09:39:39;18.00;99.90
7598;DHT22;3840;59.32098800;18.06423600;2023-08-31T09:42:05;17.90;99.90
7598;DHT22;3840;59.32098800;18.06423600;2023-08-31T09:44:31;18.10;99.90
7598;DHT22;3840;59.32098800;18.06423600;2023-08-31T09:46:58;18.00;99.90
7598;DHT22;3840;59.32098800;18.06423600;2023-08-31T09:49:25;18.10;99.90
7598;DHT22;3840;59.32098800;18.06423600;2023-08-31T09:51:51;18.10;99.90
7598;DHT22;3840;59.32098800;18.06423600;2023-08-31T09:54:20;18.20;99.90
7598;DHT22;3840;59.32098800;18.06423600;2023-08-31T09:56:56;18.20;99.90
7598;DHT22;3840;59.32098800;18.06423600;2023-08-31T09:59:23;18.20;99.90
7598;DHT22;3840;59.32098800;18.06423600;2023-08-31T10:01:49;18.10;99.90
7598;DHT22;3840;59.32098800;18.06423600;2023-08-31T10:04:15;18.20;99.90
7598;DHT22;3840;59.32098800;18.06423600;2023-08-31T10:06:42;18.30;99.90
7598;DHT22;3840;59.32098800;18.06423600;2023-08-31T10:09:10;18.20;99.90
7598;DHT22;3840;59.32098800;18.06423600;2023-08-31T10:11:38;18.10;99.90
7598;DHT22;3840;59.32098800;18.06423600;2023-08-31T10:14:04;18.10;99.90
7598;DHT22;3840;59.32098800;18.06423600;2023-08-31T10:16:32;18.10;99.90
7598;DHT22;3840;59.32098800;18.06423600;2023-08-31T10:18:58;18.20;99.90
7598;DHT22;3840;59.32098800;18.06423600;2023-08-31T10:21:24;18.20;99.90
7598;DHT22;3840;59.32098800;18.06423600;2023-08-31T10:23:52;18.20;99.90
7598;DHT22;3840;59.32098800;18.06423600;2023-08-31T10:26:29;18.20;99.90
7598;DHT22;3840;59.32098800;18.06423600;2023-08-31T10:28:56;18.30;99.90
7598;DHT22;3840;59.32098800;18.06423600;2023-08-31T10:31:32;18.30;99.90
7598;DHT22;3840;59.32098800;18.06423600;2023-08-31T10:34:02;18.40;99.90
7598;DHT22;3840;59.32098800;18.06423600;2023-08-31T10:39:22;18.50;99.90
7598;DHT22;3840;59.32098800;18.06423600;2023-08-31T10:41:55;18.40;99.90
7598;DHT22;3840;59.32098800;18.06423600;2023-08-31T10:44:25;18.40;99.90
7598;DHT22;3840;59.32098800;18.06423600;2023-08-31T10:46:52;18.40;99.90
7598;DHT22;3840;59.32098800;18.06423600;2023-08-31T10:49:23;18.40;99.90
7598;DHT22;3840;59.32098800;18.06423600;2023-08-31T10:52:15;18.50;99.90
7598;DHT22;3840;59.32098800;18.06423600;2023-08-31T10:54:42;18.60;99.90
7598;DHT22;3840;59.32098800;18.06423600;2023-08-31T10:57:07;18.70;99.90
7598;DHT22;3840;59.32098800;18.06423600;2023-08-31T10:59:53;18.70;99.90
7598;DHT22;3840;59.32098800;18.06423600;2023-08-31T11:02:37;18.80;99.90
7598;DHT22;3840;59.32098800;18.06423600;2023-08-31T11:05:16;18.80;99.90
7598;DHT22;3840;59.32098800;18.06423600;2023-08-31T11:07:43;18.70;99.90
7598;DHT22;3840;59.32098800;18.06423600;2023-08-31T11:10:21;18.70;99.90
7598;DHT22;3840;59.32098800;18.06423600;2023-08-31T11:12:53;18.80;99.90
7598;DHT22;3840;59.32098800;18.06423600;2023-08-31T11:15:25;18.80;99.90
7598;DHT22;3840;59.32098800;18.06423600;2023-08-31T11:17:55;18.80;99.90
7598;DHT22;3840;59.32098800;18.06423600;2023-08-31T11:20:22;18.80;99.90
7598;DHT22;3840;59.32098800;18.06423600;2023-08-31T11:22:51;18.80;99.90
7598;DHT22;3840;59.32098800;18.06423600;2023-08-31T11:25:21;18.80;99.90
7598;DHT22;3840;59.32098800;18.06423600;2023-08-31T11:27:59;18.90;99.90
7598;DHT22;3840;59.32098800;18.06423600;2023-08-31T11:30:26;19.00;99.90
7598;DHT22;3840;59.32098800;18.06423600;2023-08-31T11:32:52;18.90;99.90
7598;DHT22;3840;59.32098800;18.06423600;2023-08-31T11:35:19;19.00;99.90
7598;DHT22;3840;59.32098800;18.06423600;2023-08-31T11:37:49;19.20;99.90
7598;DHT22;3840;59.32098800;18.06423600;2023-08-31T11:40:15;19.30;99.90
7598;DHT22;3840;59.32098800;18.06423600;2023-08-31T11:42:41;19.20;99.90
7598;DHT22;3840;59.32098800;18.06423600;2023-08-31T11:45:08;19.00;99.90
7598;DHT22;3840;59.32098800;18.06423600;2023-08-31T11:47:35;19.00;99.90
7598;DHT22;3840;59.32098800;18.06423600;2023-08-31T11:50:01;19.10;99.90
7598;DHT22;3840;59.32098800;18.06423600;2023-08-31T11:52:31;19.10;99.90
7598;DHT22;3840;59.32098800;18.06423600;2023-08-31T11:54:57;19.20;99.90
7598;DHT22;3840;59.32098800;18.06423600;2023-08-31T11:57:26;19.30;99.90
7598;DHT22;3840;59.32098800;18.06423600;2023-08-31T11:59:55;19.30;99.90
7598;DHT22;3840;59.32098800;18.06423600;2023-08-31T12:02:21;19.20;99.90
7598;DHT22;3840;59.32098800;18.06423600;2023-08-31T12:04:47;19.20;99.90
7598;DHT22;3840;59.32098800;18.06423600;2023-08-31T12:07:17;19.20;99.90
7598;DHT22;3840;59.32098800;18.06423600;2023-08-31T12:09:44;19.20;99.90
7598;DHT22;3840;59.32098800;18.06423600;2023-08-31T12:12:11;19.30;99.90
7598;DHT22;3840;59.32098800;18.06423600;2023-08-31T12:14:39;19.30;99.90
7598;DHT22;3840;59.32098800;18.06423600;2023-08-31T12:17:07;19.30;99.90
7598;DHT22;3840;59.32098800;18.06423600;2023-08-31T12:19:35;19.30;99.90
7598;DHT22;3840;59.32098800;18.06423600;2023-08-31T12:22:01;19.30;99.90
7598;DHT22;3840;59.32098800;18.06423600;2023-08-31T12:24:28;19.30;99.90
7598;DHT22;3840;59.32098800;18.06423600;2023-08-31T12:26:53;19.40;99.90
7598;DHT22;3840;59.32098800;18.06423600;2023-08-31T12:29:20;19.50;99.90
7598;DHT22;3840;59.32098800;18.06423600;2023-08-31T12:31:46;19.60;99.90
7598;DHT22;3840;59.32098800;18.06423600;2023-08-31T12:34:11;19.40;99.90
7598;DHT22;3840;59.32098800;18.06423600;2023-08-31T12:36:39;19.60;99.90
7598;DHT22;3840;59.32098800;18.06423600;2023-08-31T12:39:09;19.60;99.90
7598;DHT22;3840;59.32098800;18.06423600;2023-08-31T12:41:39;19.70;99.90
7598;DHT22;3840;59.32098800;18.06423600;2023-08-31T12:44:07;19.60;99.90
7598;DHT22;3840;59.32098800;18.06423600;2023-08-31T12:46:33;19.60;99.90
7598;DHT22;3840;59.32098800;18.06423600;2023-08-31T12:49:00;19.60;99.90
7598;DHT22;3840;59.32098800;18.06423600;2023-08-31T12:51:28;19.70;99.90
7598;DHT22;3840;59.32098800;18.06423600;2023-08-31T12:53:53;19.80;99.90
7598;DHT22;3840;59.32098800;18.06423600;2023-08-31T12:56:19;20.00;99.90
7598;DHT22;3840;59.32098800;18.06423600;2023-08-31T12:58:51;20.10;99.90
7598;DHT22;3840;59.32098800;18.06423600;2023-08-31T13:01:18;20.10;99.90
7598;DHT22;3840;59.32098800;18.06423600;2023-08-31T13:03:45;20.10;99.90
7598;DHT22;3840;59.32098800;18.06423600;2023-08-31T13:06:11;20.20;99.90
7598;DHT22;3840;59.32098800;18.06423600;2023-08-31T13:08:37;20.30;99.90
7598;DHT22;3840;59.32098800;18.06423600;2023-08-31T13:11:03;20.40;99.90
7598;DHT22;3840;59.32098800;18.06423600;2023-08-31T13:13:32;20.40;99.90
7598;DHT22;3840;59.32098800;18.06423600;2023-08-31T13:15:58;20.20;99.90
7598;DHT22;3840;59.32098800;18.06423600;2023-08-31T13:18:24;20.20;99.90
7598;DHT22;3840;59.32098800;18.06423600;2023-08-31T13:20:53;20.20;99.90
7598;DHT22;3840;59.32098800;18.06423600;2023-08-31T13:23:21;20.30;99.90
7598;DHT22;3840;59.32098800;18.06423600;2023-08-31T13:25:49;20.40;99.90
7598;DHT22;3840;59.32098800;18.06423600;2023-08-31T13:28:15;20.40;99.90
7598;DHT22;3840;59.32098800;18.06423600;2023-08-31T13:30:41;20.50;99.90
7598;DHT22;3840;59.32098800;18.06423600;2023-08-31T13:33:08;20.40;99.90
7598;DHT22;3840;59.32098800;18.06423600;2023-08-31T13:35:34;20.40;99.90
7598;DHT22;3840;59.32098800;18.06423600;2023-08-31T13:38:00;20.30;99.90
7598;DHT22;3840;59.32098800;18.06423600;2023-08-31T13:40:26;20.30;99.90
7598;DHT22;3840;59.32098800;18.06423600;2023-08-31T13:42:54;20.30;99.90